createdAt,value
2023-04-06T00:00:51.053Z,61.72
2023-04-06T00:03:18.781Z,62.96
2023-04-06T00:05:46.398Z,62.59
2023-04-06T00:08:13.807Z,62.44
2023-04-06T00:10:41.370Z,61.53
2023-04-06T00:13:08.882Z,61.79
2023-04-06T00:15:36.839Z,61.13
2023-04-06T00:18:05.702Z,61.34
2023-04-06T00:20:33.202Z,60.75
2023-04-06T00:23:00.592Z,61.05
2023-04-06T00:25:28.082Z,61.72
2023-04-06T00:27:55.614Z,62.34
2023-04-06T00:30:23.309Z,62.46
2023-04-06T00:32:51.837Z,61.18
2023-04-06T00:35:20.875Z,60.67
2023-04-06T00:37:48.936Z,62.92
2023-04-06T00:40:16.445Z,62.16
2023-04-06T00:42:44.005Z,62.85
2023-04-06T00:45:12.205Z,61.27
2023-04-06T00:47:39.814Z,61.95
2023-04-06T00:50:08.312Z,61.24
2023-04-06T00:52:37.101Z,61.78
2023-04-06T00:55:04.860Z,62.84
2023-04-06T00:57:33.048Z,62.06
2023-04-06T01:00:00.571Z,64.98
2023-04-06T01:02:28.061Z,65.64
2023-04-06T01:04:56.224Z,63.46
2023-04-06T01:07:23.709Z,62.34
2023-04-06T01:09:54.730Z,62.01
2023-04-06T01:12:22.202Z,64.42
2023-04-06T01:14:50.517Z,63.43
2023-04-06T01:17:18.241Z,63.05
2023-04-06T01:19:46.492Z,61.34
2023-04-06T01:22:17.392Z,62.61
2023-04-06T01:24:44.889Z,62.95
2023-04-06T01:27:12.546Z,62.10
2023-04-06T01:29:42.105Z,62.31
2023-04-06T01:32:09.969Z,61.66
2023-04-06T01:34:37.530Z,61.84
2023-04-06T01:37:04.930Z,62.96
2023-04-06T01:39:33.662Z,61.98
2023-04-06T01:42:01.039Z,61.66
2023-04-06T01:44:31.196Z,61.80
2023-04-06T01:46:58.667Z,61.40
2023-04-06T01:49:26.640Z,62.23
2023-04-06T01:51:55.298Z,62.28
2023-04-06T01:54:22.788Z,64.30
2023-04-06T01:56:52.496Z,64.78
2023-04-06T01:59:19.946Z,67.05
2023-04-06T02:01:48.356Z,66.86
2023-04-06T02:04:16.191Z,66.80
2023-04-06T02:06:43.613Z,65.08
2023-04-06T02:09:11.008Z,65.18
2023-04-06T02:11:38.420Z,63.41
2023-04-06T02:14:07.151Z,65.06
2023-04-06T02:16:34.608Z,63.80
2023-04-06T02:19:02.002Z,63.15
2023-04-06T02:21:29.573Z,63.88
2023-04-06T02:23:56.996Z,63.45
2023-04-06T02:26:24.434Z,64.32
2023-04-06T02:28:51.812Z,63.88
2023-04-06T02:31:20.572Z,64.56
2023-04-06T02:33:48.009Z,64.21
2023-04-06T02:36:15.803Z,64.75
2023-04-06T02:38:43.215Z,63.41
2023-04-06T02:41:10.713Z,64.33
2023-04-06T02:43:38.092Z,66.05
2023-04-06T02:46:05.549Z,67.78
2023-04-06T02:48:36.988Z,64.34
2023-04-06T02:51:04.598Z,65.31
2023-04-06T02:53:31.966Z,64.32
2023-04-06T02:55:59.387Z,64.10
2023-04-06T02:58:26.825Z,65.19
2023-04-06T03:00:54.276Z,64.86
2023-04-06T03:03:22.379Z,65.24
2023-04-06T03:05:51.519Z,64.83
2023-04-06T03:08:18.947Z,65.09
2023-04-06T03:10:46.376Z,65.90
2023-04-06T03:13:13.826Z,64.30
2023-04-06T03:15:41.555Z,64.33
2023-04-06T03:18:09.059Z,65.62
2023-04-06T03:20:36.584Z,65.09
2023-04-06T03:23:05.349Z,67.66
2023-04-06T03:25:32.766Z,66.26
2023-04-06T03:28:00.250Z,67.31
2023-04-06T03:30:27.700Z,65.94
2023-04-06T03:32:55.402Z,69.00
2023-04-06T03:35:22.913Z,67.55
2023-04-06T03:37:50.625Z,67.26
2023-04-06T03:40:19.425Z,66.12
2023-04-06T03:42:46.829Z,67.88
2023-04-06T03:45:14.985Z,68.45
2023-04-06T03:47:42.460Z,66.78
2023-04-06T03:50:10.900Z,68.30
2023-04-06T03:52:38.385Z,66.72
2023-04-06T03:55:06.914Z,67.07
2023-04-06T03:57:35.626Z,66.71
2023-04-06T04:00:03.229Z,66.59
2023-04-06T04:02:30.736Z,66.48
2023-04-06T04:04:58.282Z,66.80
2023-04-06T04:07:25.812Z,66.87
2023-04-06T04:09:53.182Z,67.27
2023-04-06T04:12:20.858Z,67.89
2023-04-06T04:14:49.593Z,67.87
2023-04-06T04:17:17.015Z,67.33
2023-04-06T04:19:44.405Z,67.13
2023-04-06T04:22:11.860Z,66.85
2023-04-06T04:24:39.249Z,67.63
2023-04-06T04:27:06.725Z,67.65
2023-04-06T04:29:34.181Z,68.24
2023-04-06T04:32:02.949Z,68.51
2023-04-06T04:34:30.438Z,67.95
2023-04-06T04:36:57.901Z,66.90
2023-04-06T04:39:25.350Z,67.43
2023-04-06T04:41:53.031Z,67.38
2023-04-06T04:44:20.843Z,68.84
2023-04-06T04:46:48.295Z,68.98
2023-04-06T04:49:17.067Z,68.67
2023-04-06T04:51:44.473Z,68.07
2023-04-06T04:54:11.923Z,67.56
2023-04-06T04:56:39.348Z,67.67
2023-04-06T04:59:07.008Z,66.92
2023-04-06T05:01:43.944Z,66.68
2023-04-06T05:04:22.951Z,64.64
2023-04-06T05:06:50.413Z,65.13
2023-04-06T05:09:18.450Z,62.43
2023-04-06T05:11:45.974Z,62.44
2023-04-06T05:14:13.473Z,62.98
2023-04-06T05:16:41.029Z,62.09
2023-04-06T05:19:08.833Z,62.79
2023-04-06T05:21:37.706Z,62.78
2023-04-06T05:24:05.398Z,61.89
2023-04-06T05:26:32.835Z,61.53
2023-04-06T05:29:00.329Z,61.84
2023-04-06T05:31:27.809Z,60.14
2023-04-06T05:33:55.434Z,60.32
2023-04-06T05:36:22.836Z,59.75
2023-04-06T05:38:53.706Z,60.85
2023-04-06T05:41:21.166Z,60.17
2023-04-06T05:43:48.583Z,56.31
2023-04-06T05:46:16.271Z,52.10
2023-04-06T05:48:43.709Z,48.23
2023-04-06T05:51:11.114Z,45.13
2023-04-06T05:53:38.868Z,45.90
2023-04-06T05:56:08.294Z,45.43
2023-04-06T05:58:35.719Z,48.10
2023-04-06T06:01:04.538Z,46.54
2023-04-06T06:03:32.309Z,50.09
2023-04-06T06:06:05.027Z,54.21
2023-04-06T06:08:33.012Z,56.30
2023-04-06T06:11:01.160Z,57.30
2023-04-06T06:13:29.929Z,58.74
2023-04-06T06:15:57.417Z,59.66
2023-04-06T06:18:25.020Z,59.02
2023-04-06T06:20:52.520Z,59.44
2023-04-06T06:23:19.945Z,59.01
2023-04-06T06:25:47.366Z,60.15
2023-04-06T06:28:15.738Z,59.34
2023-04-06T06:30:44.553Z,59.63
2023-04-06T06:33:11.930Z,58.97
2023-04-06T06:35:39.370Z,59.89
2023-04-06T06:38:06.822Z,59.74
2023-04-06T06:40:35.381Z,59.41
2023-04-06T06:43:02.853Z,59.07
2023-04-06T06:45:30.735Z,61.47
2023-04-06T06:47:59.931Z,60.84
2023-04-06T06:50:27.432Z,60.25
2023-04-06T06:52:55.101Z,61.08
2023-04-06T06:55:22.528Z,62.92
2023-04-06T06:57:50.033Z,60.57
2023-04-06T07:00:18.006Z,59.35
2023-04-06T07:02:45.758Z,64.07
2023-04-06T07:05:26.979Z,60.89
2023-04-06T07:07:55.995Z,59.33
2023-04-06T07:10:23.610Z,58.77
2023-04-06T07:12:51.089Z,61.11
2023-04-06T07:15:19.204Z,58.44
2023-04-06T07:17:46.911Z,58.92
2023-04-06T07:20:16.472Z,59.63
2023-04-06T07:22:45.484Z,59.70
2023-04-06T07:25:13.222Z,58.05
2023-04-06T07:27:40.919Z,57.01
2023-04-06T07:30:09.684Z,56.91
2023-04-06T07:32:37.651Z,59.38
2023-04-06T07:35:05.593Z,59.93
2023-04-06T07:37:34.389Z,57.70
2023-04-06T07:40:01.818Z,55.88
2023-04-06T07:42:29.252Z,54.94
2023-04-06T07:44:56.774Z,54.75
2023-04-06T07:47:25.221Z,55.45
2023-04-06T07:49:52.688Z,54.84
2023-04-06T07:52:20.083Z,54.87
2023-04-06T07:54:50.360Z,52.84
2023-04-06T07:57:17.782Z,52.99
2023-04-06T07:59:45.329Z,54.97
2023-04-06T08:02:12.799Z,58.04
2023-04-06T08:04:40.306Z,55.92
2023-04-06T08:07:07.752Z,60.32
2023-04-06T08:09:35.522Z,58.79
2023-04-06T08:12:04.312Z,55.42
2023-04-06T08:14:31.799Z,56.24
2023-04-06T08:16:59.265Z,58.15
2023-04-06T08:19:26.774Z,53.71
2023-04-06T08:21:54.171Z,53.22
2023-04-06T08:24:21.581Z,53.16
2023-04-06T08:26:49.086Z,51.72
2023-04-06T08:29:17.819Z,51.96
2023-04-06T08:31:45.362Z,51.43
2023-04-06T08:34:14.347Z,50.85
2023-04-06T08:36:42.939Z,53.82
2023-04-06T08:39:10.397Z,50.12
2023-04-06T08:41:37.779Z,53.31
2023-04-06T08:44:05.914Z,51.21
2023-04-06T08:46:35.019Z,48.82
2023-04-06T08:49:04.824Z,49.11
2023-04-06T08:51:32.622Z,50.14
2023-04-06T08:54:01.525Z,51.72
2023-04-06T08:56:30.044Z,50.30
2023-04-06T08:58:58.124Z,47.96
2023-04-06T09:01:29.247Z,47.80
2023-04-06T09:03:59.979Z,46.68
2023-04-06T09:06:28.650Z,47.06
2023-04-06T09:08:57.568Z,46.45
2023-04-06T09:11:25.024Z,48.35
2023-04-06T09:13:53.821Z,47.48
2023-04-06T09:16:21.664Z,47.21
2023-04-06T09:18:49.705Z,47.09
2023-04-06T09:21:22.821Z,46.56
2023-04-06T09:24:00.803Z,45.71
2023-04-06T09:26:28.817Z,46.68
2023-04-06T09:28:57.489Z,43.78
2023-04-06T09:31:26.406Z,46.32
2023-04-06T09:33:54.920Z,45.95
2023-04-06T09:36:32.165Z,46.01
2023-04-06T09:39:01.630Z,43.84
2023-04-06T09:41:30.434Z,43.40
2023-04-06T09:44:05.295Z,43.05
2023-04-06T09:46:43.039Z,45.42
2023-04-06T09:49:20.270Z,43.35
2023-04-06T09:51:55.516Z,43.06
2023-04-06T09:54:24.472Z,42.33
2023-04-06T09:56:56.943Z,40.91
2023-04-06T09:59:33.508Z,41.77
2023-04-06T10:02:02.344Z,43.77
2023-04-06T10:04:42.520Z,44.23
2023-04-06T10:07:13.032Z,42.50
2023-04-06T10:09:40.642Z,43.18
2023-04-06T10:12:08.676Z,43.15
2023-04-06T10:14:37.979Z,41.72
2023-04-06T10:17:06.487Z,40.76
2023-04-06T10:19:43.559Z,39.13
2023-04-06T10:22:17.506Z,41.56
2023-04-06T10:24:44.899Z,40.19
2023-04-06T10:27:12.378Z,38.72
2023-04-06T10:29:47.571Z,38.42
2023-04-06T10:32:15.199Z,38.43
2023-04-06T10:34:42.679Z,37.90
2023-04-06T10:37:16.005Z,38.83
2023-04-06T10:39:58.440Z,37.81
2023-04-06T10:42:26.676Z,38.91
2023-04-06T10:44:54.138Z,39.74
2023-04-06T10:47:21.645Z,39.25
2023-04-06T10:49:49.091Z,39.83
2023-04-06T10:52:17.887Z,38.64
2023-04-06T10:54:46.956Z,38.59
2023-04-06T10:57:16.086Z,38.75
2023-04-06T10:59:45.117Z,37.24
2023-04-06T11:02:21.786Z,37.92
2023-04-06T11:04:56.734Z,37.43
2023-04-06T11:07:31.080Z,37.91
2023-04-06T11:10:13.516Z,39.21
2023-04-06T11:12:44.775Z,40.54
2023-04-06T11:15:12.792Z,39.21
2023-04-06T11:17:40.615Z,37.58
2023-04-06T11:20:12.855Z,38.34
2023-04-06T11:22:51.914Z,37.57
2023-04-06T11:25:19.988Z,37.77
2023-04-06T11:27:48.780Z,40.27
2023-04-06T11:30:16.832Z,39.25
2023-04-06T11:32:45.322Z,38.67
2023-04-06T11:35:14.429Z,38.15
2023-04-06T11:37:41.898Z,37.56
2023-04-06T11:40:12.203Z,37.32
2023-04-06T11:42:39.694Z,38.93
2023-04-06T11:45:09.458Z,37.98
2023-04-06T11:47:39.240Z,36.82
2023-04-06T11:50:11.461Z,35.50
2023-04-06T11:52:40.310Z,36.97
2023-04-06T11:55:17.529Z,38.96
2023-04-06T11:57:45.992Z,38.36
2023-04-06T12:00:14.600Z,38.43
2023-04-06T12:02:47.156Z,38.15
2023-04-06T12:05:14.909Z,37.80
2023-04-06T12:10:15.992Z,37.56
2023-04-06T12:12:43.385Z,37.73
2023-04-06T12:15:11.442Z,37.54
2023-04-06T12:17:39.100Z,36.91
2023-04-06T12:20:22.025Z,37.94
2023-04-06T12:22:53.049Z,36.93
2023-04-06T12:25:22.117Z,37.19
2023-04-06T12:27:49.721Z,35.80
2023-04-06T12:30:17.697Z,35.18
2023-04-06T12:32:45.271Z,35.82
2023-04-06T12:35:16.586Z,35.99
2023-04-06T12:37:44.158Z,36.02
2023-04-06T12:40:12.829Z,35.18
2023-04-06T12:42:42.696Z,35.57
2023-04-06T12:45:11.073Z,38.40
2023-04-06T12:47:38.707Z,37.58
2023-04-06T12:50:07.748Z,36.75
2023-04-06T12:52:36.291Z,36.32
2023-04-06T12:55:03.904Z,36.47
2023-04-06T12:57:31.629Z,36.39
2023-04-06T13:00:01.153Z,36.10
2023-04-06T13:02:28.967Z,35.11
2023-04-06T13:04:56.424Z,35.94
2023-04-06T13:07:23.897Z,36.30
2023-04-06T13:09:51.400Z,35.78
2023-04-06T13:12:18.818Z,36.41
2023-04-06T13:14:48.372Z,37.21
2023-04-06T13:17:17.738Z,37.45
2023-04-06T13:19:45.279Z,36.40
2023-04-06T13:22:12.677Z,36.53
2023-04-06T13:24:40.071Z,35.65
2023-04-06T13:27:07.510Z,36.96
2023-04-06T13:29:35.216Z,37.61
2023-04-06T13:32:02.691Z,36.93
2023-04-06T13:34:31.449Z,38.51
2023-04-06T13:36:58.915Z,36.39
2023-04-06T13:39:27.229Z,38.70
2023-04-06T13:41:56.393Z,37.98
2023-04-06T13:44:23.939Z,35.83
2023-04-06T13:46:51.397Z,38.47
2023-04-06T13:49:18.788Z,37.46
2023-04-06T13:51:47.572Z,38.79
2023-04-06T13:54:15.219Z,36.05
2023-04-06T13:56:42.655Z,35.19
2023-04-06T13:59:10.105Z,36.37
2023-04-06T14:01:37.628Z,35.61
2023-04-06T14:04:05.406Z,36.34
2023-04-06T14:06:32.926Z,36.79
2023-04-06T14:09:02.050Z,38.20
2023-04-06T14:11:29.847Z,37.15
2023-04-06T14:13:58.508Z,36.45
2023-04-06T14:16:27.295Z,37.75
2023-04-06T14:18:55.010Z,38.46
2023-04-06T14:21:22.420Z,36.09
2023-04-06T14:23:49.854Z,37.69
2023-04-06T14:26:18.588Z,38.49
2023-04-06T14:28:47.271Z,39.11
2023-04-06T14:31:17.050Z,39.01
2023-04-06T14:33:44.962Z,38.44
2023-04-06T14:36:12.839Z,38.63
2023-04-06T14:38:41.201Z,39.15
2023-04-06T14:41:10.261Z,37.02
2023-04-06T14:43:38.980Z,39.17
2023-04-06T14:46:06.564Z,39.15
2023-04-06T14:48:34.007Z,39.03
2023-04-06T14:51:01.422Z,38.72
2023-04-06T14:53:29.212Z,37.71
2023-04-06T14:55:56.993Z,38.64
2023-04-06T14:58:25.446Z,39.89
2023-04-06T15:00:59.818Z,39.46
2023-04-06T15:03:27.551Z,38.67
2023-04-06T15:05:55.538Z,39.50
2023-04-06T15:08:23.359Z,39.26
2023-04-06T15:10:51.540Z,37.84
2023-04-06T15:13:19.450Z,37.90
2023-04-06T15:15:46.962Z,38.32
2023-04-06T15:18:16.238Z,38.81
2023-04-06T15:20:44.626Z,39.38
2023-04-06T15:23:11.999Z,39.21
2023-04-06T15:25:42.089Z,39.95
2023-04-06T15:28:09.595Z,41.90
2023-04-06T15:30:37.114Z,41.13
2023-04-06T15:33:06.674Z,40.22
2023-04-06T15:35:40.226Z,38.66
2023-04-06T15:38:08.455Z,40.20
2023-04-06T15:40:37.133Z,40.76
2023-04-06T15:43:04.534Z,39.85
2023-04-06T15:45:31.936Z,38.62
2023-04-06T15:47:59.388Z,42.33
2023-04-06T15:50:27.965Z,40.36
2023-04-06T15:52:56.698Z,40.13
2023-04-06T15:55:24.330Z,40.66
2023-04-06T15:57:51.832Z,41.08
2023-04-06T16:00:19.973Z,39.87
2023-04-06T16:02:47.678Z,38.07
2023-04-06T16:05:15.311Z,40.42
2023-04-06T16:07:43.046Z,40.66
2023-04-06T16:10:12.322Z,39.65
2023-04-06T16:12:42.352Z,40.47
2023-04-06T16:15:10.797Z,41.66
2023-04-06T16:17:38.285Z,41.89
2023-04-06T16:20:06.899Z,41.79
2023-04-06T16:22:34.373Z,41.26
2023-04-06T16:25:02.046Z,40.75
2023-04-06T16:27:31.023Z,41.32
2023-04-06T16:29:58.422Z,40.15
2023-04-06T16:32:25.979Z,39.39
2023-04-06T16:34:53.574Z,39.43
2023-04-06T16:37:21.148Z,38.45
2023-04-06T16:39:48.579Z,38.80
2023-04-06T16:42:17.340Z,39.87
2023-04-06T16:44:48.470Z,41.23
2023-04-06T16:47:16.542Z,41.43
2023-04-06T16:49:44.035Z,40.99
2023-04-06T16:52:11.473Z,40.66
2023-04-06T16:54:38.983Z,40.05
2023-04-06T16:57:06.707Z,40.35
2023-04-06T16:59:34.256Z,40.94
2023-04-06T17:02:03.143Z,40.44
2023-04-06T17:04:31.056Z,41.53
2023-04-06T17:06:58.461Z,41.17
2023-04-06T17:09:25.902Z,42.31
2023-04-06T17:11:53.310Z,40.43
2023-04-06T17:14:20.807Z,40.58
2023-04-06T17:16:48.219Z,41.51
2023-04-06T17:19:17.031Z,40.31
2023-04-06T17:21:44.456Z,41.29
2023-04-06T17:24:12.041Z,39.56
2023-04-06T17:26:40.406Z,43.05
2023-04-06T17:29:07.951Z,42.48
2023-04-06T17:31:35.456Z,42.24
2023-04-06T17:34:02.986Z,43.42
2023-04-06T17:36:32.744Z,43.37
2023-04-06T17:39:00.542Z,42.90
2023-04-06T17:41:28.647Z,42.80
2023-04-06T17:43:56.290Z,42.78
2023-04-06T17:46:23.682Z,43.77
2023-04-06T17:48:51.979Z,44.13
2023-04-06T17:51:20.671Z,43.92
2023-04-06T17:53:49.759Z,44.59
2023-04-06T17:56:17.322Z,44.73
2023-04-06T17:58:45.380Z,44.48
2023-04-06T18:01:12.921Z,46.40
2023-04-06T18:03:40.326Z,45.02
2023-04-06T18:06:12.191Z,43.95
2023-04-06T18:08:39.665Z,45.47
2023-04-06T18:11:08.737Z,43.77
2023-04-06T18:13:39.281Z,44.04
2023-04-06T18:16:07.968Z,44.58
2023-04-06T18:18:35.479Z,43.86
2023-04-06T18:21:04.651Z,42.68
2023-04-06T18:23:32.283Z,44.41
2023-04-06T18:26:00.630Z,44.95
2023-04-06T18:28:31.158Z,45.19
2023-04-06T18:30:59.382Z,44.74
2023-04-06T18:33:28.096Z,45.22
2023-04-06T18:35:56.627Z,45.86
2023-04-06T18:38:24.176Z,46.42
2023-04-06T18:40:51.848Z,45.60
2023-04-06T18:43:19.451Z,46.11
2023-04-06T18:45:48.275Z,45.51
2023-04-06T18:48:15.698Z,45.67
2023-04-06T18:50:53.056Z,45.41
2023-04-06T18:53:21.171Z,45.57
2023-04-06T18:55:48.593Z,46.47
2023-04-06T18:58:16.014Z,45.99
2023-04-06T19:00:43.530Z,47.14
2023-04-06T19:03:12.418Z,46.87
2023-04-06T19:05:41.656Z,45.59
2023-04-06T19:08:09.965Z,46.99
2023-04-06T19:10:38.554Z,48.05
2023-04-06T19:13:06.353Z,47.81
2023-04-06T19:15:34.076Z,47.66
2023-04-06T19:18:01.668Z,48.53
2023-04-06T19:20:30.648Z,49.36
2023-04-06T19:22:58.585Z,48.32
2023-04-06T19:25:26.216Z,50.46
2023-04-06T19:27:53.686Z,49.58
2023-04-06T19:30:21.262Z,48.53
2023-04-06T19:32:48.985Z,51.03
2023-04-06T19:35:16.450Z,50.47
2023-04-06T19:37:45.314Z,49.28
2023-04-06T19:40:12.904Z,48.70
2023-04-06T19:42:40.852Z,48.59
2023-04-06T19:45:10.171Z,48.74
2023-04-06T19:47:37.769Z,49.71
2023-04-06T19:50:06.305Z,50.45
2023-04-06T19:52:34.035Z,49.39
2023-04-06T19:55:02.815Z,50.41
2023-04-06T20:01:17.460Z,50.95
2023-04-06T20:03:45.011Z,50.93
2023-04-06T20:06:12.490Z,50.01
2023-04-06T20:08:39.904Z,48.33
2023-04-06T20:11:08.905Z,50.04
2023-04-06T20:13:36.996Z,49.47
2023-04-06T20:16:05.490Z,49.25
2023-04-06T20:18:33.646Z,49.65
2023-04-06T20:21:01.362Z,49.53
2023-04-06T20:23:28.919Z,48.61
2023-04-06T20:25:56.379Z,49.68
2023-04-06T20:28:25.239Z,48.76
2023-04-06T20:30:53.272Z,48.74
2023-04-06T20:33:20.748Z,48.08
2023-04-06T20:35:48.177Z,48.81
2023-04-06T20:38:15.894Z,48.90
2023-04-06T20:40:45.352Z,48.50
2023-04-06T20:43:12.906Z,48.62
2023-04-06T20:45:42.365Z,48.72
2023-04-06T20:48:11.657Z,49.38
2023-04-06T20:50:39.239Z,52.27
2023-04-06T20:53:06.699Z,54.79
2023-04-06T20:55:34.514Z,55.97
2023-04-06T20:58:01.903Z,51.61
2023-04-06T21:00:29.331Z,50.69
2023-04-06T21:02:58.361Z,52.80
2023-04-06T21:05:25.850Z,50.16
2023-04-06T21:07:53.307Z,50.35
2023-04-06T21:10:20.972Z,50.10
2023-04-06T21:12:48.379Z,51.67
2023-04-06T21:15:15.843Z,51.15
2023-04-06T21:17:43.533Z,48.96
2023-04-06T21:20:12.953Z,55.04
2023-04-06T21:22:41.158Z,49.17
2023-04-06T21:25:09.238Z,49.96
2023-04-06T21:27:36.642Z,50.81
2023-04-06T21:30:04.657Z,51.22
2023-04-06T21:32:32.172Z,53.12
2023-04-06T21:34:59.646Z,49.38
2023-04-06T21:37:29.209Z,57.91
2023-04-06T21:39:57.610Z,49.96
2023-04-06T21:42:25.252Z,49.62
2023-04-06T21:44:52.860Z,48.01
2023-04-06T21:47:20.377Z,48.18
2023-04-06T21:49:48.022Z,48.15
2023-04-06T21:52:15.484Z,48.53
2023-04-06T21:54:44.299Z,49.35
2023-04-06T21:57:13.473Z,48.93
2023-04-06T21:59:40.989Z,48.28
2023-04-06T22:02:08.489Z,49.27
2023-04-06T22:04:36.165Z,49.09
2023-04-06T22:07:03.946Z,48.42
2023-04-06T22:09:32.292Z,49.12
2023-04-06T22:12:01.037Z,49.17
2023-04-06T22:14:28.593Z,49.04
2023-04-06T22:16:56.016Z,48.86
2023-04-06T22:19:23.431Z,48.77
2023-04-06T22:21:50.964Z,48.57
2023-04-06T22:24:18.587Z,50.58
2023-04-06T22:26:46.193Z,49.68
2023-04-06T22:29:14.936Z,48.97
2023-04-06T22:31:42.410Z,49.01
2023-04-06T22:34:09.994Z,49.80
2023-04-06T22:36:37.386Z,49.63
2023-04-06T22:39:04.982Z,49.40
2023-04-06T22:41:32.786Z,50.41
2023-04-06T22:44:00.205Z,49.51
2023-04-06T22:46:32.041Z,50.48
2023-04-06T22:48:59.583Z,50.16
2023-04-06T22:51:27.988Z,49.77
2023-04-06T22:53:55.416Z,51.10
2023-04-06T22:56:22.859Z,50.66
2023-04-06T22:58:51.124Z,50.24
2023-04-06T23:01:18.695Z,50.28
2023-04-06T23:03:47.577Z,50.31
2023-04-06T23:06:15.073Z,50.44
2023-04-06T23:08:42.509Z,51.05
2023-04-06T23:11:09.917Z,50.81
2023-04-06T23:13:37.367Z,50.21
2023-04-06T23:16:05.225Z,50.28
2023-04-06T23:18:32.633Z,50.15
2023-04-06T23:21:01.497Z,49.77
2023-04-06T23:23:28.921Z,50.47
2023-04-06T23:25:56.363Z,50.21
2023-04-06T23:28:23.807Z,51.14
2023-04-06T23:30:51.509Z,51.88
2023-04-06T23:33:19.111Z,51.97
2023-04-06T23:35:46.917Z,51.39
2023-04-06T23:38:15.677Z,51.71
2023-04-06T23:40:43.133Z,52.13
2023-04-06T23:43:10.742Z,50.82
2023-04-06T23:45:40.873Z,51.54
2023-04-06T23:48:08.445Z,52.28
2023-04-06T23:50:35.988Z,51.99
2023-04-06T23:53:03.450Z,52.70
2023-04-06T23:55:32.361Z,52.30
2023-04-06T23:58:00.130Z,52.57
